Time;durP1;ratioP1;P1;durP2;ratioP2;P2;SDS_P1;SDS_P2;PMS_P1;PMS_P2;Temp;Humidity;BMP_temperature;BMP_pressure;BME280_temperature;BME280_humidity;BME280_pressure;Samples;Min_cycle;Max_cycle;Signal;HPM_P1;HPM_P2
2022/08/14 00:00:49;;;;;;;6.40;5.90;;;22.80;99.90;;;;;;4952499;28;20712;-65
2022/08/14 00:03:24;;;;;;;6.15;5.55;;;22.70;99.90;;;;;;4986440;28;20194;-63
2022/08/14 00:05:51;;;;;;;6.32;5.53;;;22.70;99.90;;;;;;4961419;28;20220;-63
2022/08/14 00:08:16;;;;;;;6.55;6.05;;;22.60;99.90;;;;;;4980768;28;20212;-63
2022/08/14 00:10:42;;;;;;;7.63;5.53;;;22.60;99.90;;;;;;4967125;28;20220;-63
2022/08/14 00:13:09;;;;;;;5.85;5.35;;;22.60;99.90;;;;;;4983102;28;20329;-63
2022/08/14 00:15:37;;;;;;;6.10;5.50;;;22.50;99.90;;;;;;4972370;28;20201;-63
2022/08/14 00:18:04;;;;;;;6.03;5.45;;;22.50;99.90;;;;;;4980088;28;20186;-63
2022/08/14 00:20:32;;;;;;;5.43;4.93;;;22.50;99.90;;;;;;4959616;28;20714;-63
2022/08/14 00:22:59;;;;;;;7.35;5.68;;;22.50;99.90;;;;;;4971890;28;20201;-64
2022/08/14 00:25:26;;;;;;;6.05;5.55;;;22.50;99.90;;;;;;4960036;28;20630;-63
2022/08/14 00:27:52;;;;;;;6.45;5.78;;;22.50;99.90;;;;;;4962097;28;20735;-63
2022/08/14 00:30:17;;;;;;;5.65;5.25;;;22.50;99.90;;;;;;4954589;28;20440;-63
2022/08/14 00:32:43;;;;;;;6.43;5.95;;;22.60;99.90;;;;;;4977036;28;20210;-63
2022/08/14 00:35:10;;;;;;;7.05;5.32;;;22.60;99.90;;;;;;4962407;28;20284;-63
2022/08/14 00:37:38;;;;;;;6.15;5.55;;;22.60;99.90;;;;;;4978898;28;20198;-64
2022/08/14 00:40:05;;;;;;;5.72;5.22;;;22.60;99.90;;;;;;4957680;28;20216;-63
2022/08/14 00:42:31;;;;;;;6.30;5.68;;;22.60;99.90;;;;;;4973924;28;20284;-63
2022/08/14 00:44:56;;;;;;;5.95;5.45;;;22.60;99.90;;;;;;4962609;28;20301;-64
2022/08/14 00:47:25;;;;;;;5.82;5.43;;;22.60;99.90;;;;;;4958739;28;20210;-63
2022/08/14 00:49:52;;;;;;;6.45;5.82;;;22.50;99.90;;;;;;4963433;28;20214;-63
2022/08/14 00:52:19;;;;;;;5.38;4.97;;;22.50;99.90;;;;;;4972775;28;20200;-62
2022/08/14 00:54:53;;;;;;;6.32;5.75;;;22.50;99.90;;;;;;4976092;28;20238;-63
2022/08/14 00:57:24;;;;;;;6.05;5.60;;;22.50;99.90;;;;;;4947177;28;20265;-63
2022/08/14 00:59:50;;;;;;;6.20;5.60;;;22.40;99.90;;;;;;4961836;28;20206;-63
2022/08/14 01:02:18;;;;;;;5.47;4.88;;;22.40;99.90;;;;;;4976000;28;20656;-63
2022/08/14 01:04:44;;;;;;;6.45;5.80;;;22.30;99.90;;;;;;4958360;28;20496;-63
2022/08/14 01:07:11;;;;;;;6.80;5.68;;;22.30;99.90;;;;;;4981359;28;20202;-63
2022/08/14 01:09:37;;;;;;;5.90;5.40;;;22.30;99.90;;;;;;4976341;28;20224;-63
2022/08/14 01:12:04;;;;;;;6.00;5.40;;;22.30;99.90;;;;;;4955744;28;20186;-63
2022/08/14 01:14:29;;;;;;;5.90;5.50;;;22.30;99.90;;;;;;4962982;28;20249;-63
2022/08/14 01:16:55;;;;;;;6.80;6.00;;;22.30;99.90;;;;;;4958729;28;20726;-64
2022/08/14 01:22:06;;;;;;;5.82;5.43;;;22.30;99.90;;;;;;4953911;28;20552;-64
2022/08/14 01:24:32;;;;;;;5.78;5.30;;;22.30;99.90;;;;;;4963009;28;20206;-64
2022/08/14 01:26:58;;;;;;;7.25;6.57;;;22.30;99.90;;;;;;4956541;28;20814;-65
2022/08/14 01:29:26;;;;;;;6.18;5.68;;;22.10;99.90;;;;;;4977480;28;20597;-64
2022/08/14 01:31:51;;;;;;;8.63;5.78;;;22.20;99.90;;;;;;4972648;28;20212;-64
2022/08/14 01:34:19;;;;;;;8.33;6.33;;;22.20;99.90;;;;;;4962797;28;20198;-63
2022/08/14 01:36:45;;;;;;;6.25;5.68;;;22.20;99.90;;;;;;4958794;28;20268;-65
2022/08/14 01:39:14;;;;;;;6.30;5.78;;;22.20;99.90;;;;;;4966161;28;20209;-63
2022/08/14 01:41:41;;;;;;;6.60;6.00;;;22.30;99.90;;;;;;4955045;28;20633;-64
2022/08/14 01:44:12;;;;;;;6.35;5.93;;;22.30;99.90;;;;;;4975350;28;20597;-64
2022/08/14 01:46:39;;;;;;;6.57;5.85;;;22.30;99.90;;;;;;4953986;28;20186;-64
2022/08/14 01:49:10;;;;;;;7.03;6.32;;;22.30;99.90;;;;;;4966338;28;20719;-63
2022/08/14 01:51:38;;;;;;;6.43;5.82;;;22.30;99.90;;;;;;4949120;28;20186;-63
2022/08/14 01:54:08;;;;;;;7.03;5.80;;;22.30;99.90;;;;;;4972460;28;20627;-63
2022/08/14 01:56:38;;;;;;;7.18;6.47;;;22.30;99.90;;;;;;4963022;28;20190;-63
2022/08/14 01:59:08;;;;;;;7.45;6.00;;;22.30;99.90;;;;;;4975582;28;20201;-63
2022/08/14 02:01:34;;;;;;;8.35;6.35;;;22.30;99.90;;;;;;4961029;28;20186;-63
2022/08/14 02:04:02;;;;;;;6.50;6.00;;;22.30;99.90;;;;;;4970763;28;20197;-64
2022/08/14 02:06:28;;;;;;;7.28;6.68;;;22.30;99.90;;;;;;4959998;28;20186;-64
2022/08/14 02:08:54;;;;;;;6.97;6.13;;;22.30;99.90;;;;;;4969369;28;20284;-63
2022/08/14 02:11:23;;;;;;;9.25;6.05;;;22.20;99.90;;;;;;4980950;28;20648;-63
2022/08/14 02:13:48;;;;;;;6.60;6.10;;;22.10;99.90;;;;;;4969951;28;20198;-63
2022/08/14 02:16:16;;;;;;;7.55;6.03;;;22.20;99.90;;;;;;4976365;28;20560;-63
2022/08/14 02:18:42;;;;;;;7.22;6.05;;;22.10;99.90;;;;;;4984915;28;20672;-63
2022/08/14 02:21:11;;;;;;;8.30;6.72;;;22.10;99.90;;;;;;4962276;28;20218;-63
2022/08/14 02:23:37;;;;;;;6.72;6.22;;;22.10;99.90;;;;;;4969655;28;20961;-63
2022/08/14 02:26:17;;;;;;;7.43;6.82;;;22.10;99.90;;;;;;4975529;28;20202;-63
2022/08/14 02:28:43;;;;;;;8.73;7.20;;;22.10;99.90;;;;;;4965850;28;20200;-63
2022/08/14 02:31:09;;;;;;;6.97;6.38;;;22.10;99.90;;;;;;4961865;28;20217;-63
2022/08/14 02:33:35;;;;;;;9.13;6.28;;;22.10;99.90;;;;;;4964140;28;20276;-63
2022/08/14 02:36:04;;;;;;;7.03;6.32;;;22.00;99.90;;;;;;4968035;28;20693;-64
2022/08/14 02:38:30;;;;;;;6.57;5.97;;;22.00;99.90;;;;;;4984414;28;20189;-66
2022/08/14 02:40:58;;;;;;;7.40;6.63;;;22.00;99.90;;;;;;4964364;28;20217;-64
2022/08/14 02:43:28;;;;;;;7.70;6.93;;;22.00;99.90;;;;;;4967244;28;20216;-63
2022/08/14 02:45:53;;;;;;;6.88;6.20;;;22.00;99.90;;;;;;4962499;28;20238;-63
2022/08/14 02:48:19;;;;;;;7.13;6.63;;;22.00;99.90;;;;;;4974056;28;20252;-63
2022/08/14 02:50:45;;;;;;;6.85;6.35;;;22.00;99.90;;;;;;4962604;28;20300;-62
2022/08/14 02:53:10;;;;;;;6.53;6.13;;;22.00;99.90;;;;;;4979569;28;20698;-62
2022/08/14 02:55:38;;;;;;;6.75;6.22;;;22.00;99.90;;;;;;4962835;28;20230;-62
2022/08/14 02:58:05;;;;;;;7.50;6.53;;;22.00;99.90;;;;;;4972561;28;20264;-62
2022/08/14 03:00:34;;;;;;;7.07;6.35;;;22.00;99.90;;;;;;4956525;28;20210;-63
2022/08/14 03:03:01;;;;;;;6.95;6.43;;;22.00;99.90;;;;;;4976260;28;20193;-63
2022/08/14 03:05:30;;;;;;;6.97;6.35;;;22.00;99.90;;;;;;4967589;28;20209;-64
2022/08/14 03:08:11;;;;;;;7.13;6.57;;;21.90;99.90;;;;;;4970237;28;20209;-64
2022/08/14 03:10:36;;;;;;;7.57;6.55;;;21.90;99.90;;;;;;4967049;28;20218;-64
2022/08/14 03:13:03;;;;;;;7.47;6.65;;;21.90;99.90;;;;;;4963690;28;20208;-64
2022/08/14 03:15:30;;;;;;;7.47;6.50;;;21.90;99.90;;;;;;4960834;28;20205;-63
2022/08/14 03:17:55;;;;;;;7.57;6.90;;;21.90;99.90;;;;;;4977602;28;20268;-64
2022/08/14 03:20:21;;;;;;;7.80;6.68;;;21.90;99.90;;;;;;4967103;28;20197;-65
2022/08/14 03:22:46;;;;;;;7.28;6.63;;;21.90;99.90;;;;;;4961524;28;20560;-64
2022/08/14 03:25:12;;;;;;;7.03;6.45;;;21.90;99.90;;;;;;4959450;28;20259;-64
2022/08/14 03:27:38;;;;;;;7.25;6.65;;;21.90;99.90;;;;;;4960756;28;20207;-63
2022/08/14 03:30:04;;;;;;;7.03;6.25;;;21.90;99.90;;;;;;4959988;28;20350;-64
2022/08/14 03:32:32;;;;;;;6.83;6.33;;;21.90;99.90;;;;;;4956722;28;20200;-64
2022/08/14 03:34:58;;;;;;;7.30;6.70;;;21.90;99.90;;;;;;4962017;28;20214;-63
2022/08/14 03:37:25;;;;;;;9.20;6.80;;;21.90;99.90;;;;;;4960935;28;20190;-63
2022/08/14 03:39:51;;;;;;;7.75;6.93;;;21.90;99.90;;;;;;4958093;28;20202;-64
2022/08/14 03:42:17;;;;;;;7.57;6.97;;;21.80;99.90;;;;;;4960731;28;20269;-63
2022/08/14 03:44:43;;;;;;;7.20;6.47;;;21.80;99.90;;;;;;4956082;28;20289;-64
2022/08/14 03:47:08;;;;;;;7.25;6.55;;;21.80;99.90;;;;;;4957044;28;20182;-63
2022/08/14 03:49:34;;;;;;;6.68;6.15;;;21.80;99.90;;;;;;4961876;28;20941;-64
2022/08/14 03:52:03;;;;;;;8.30;7.57;;;21.80;99.90;;;;;;4965200;28;20178;-64
2022/08/14 03:54:29;;;;;;;8.73;6.60;;;21.80;99.90;;;;;;4958581;28;20194;-64
2022/08/14 03:56:59;;;;;;;9.32;7.80;;;21.80;99.90;;;;;;4959150;28;20307;-64
2022/08/14 03:59:25;;;;;;;6.72;6.07;;;21.80;99.90;;;;;;4979027;28;20205;-63
2022/08/14 04:01:51;;;;;;;8.23;6.90;;;21.80;99.90;;;;;;4958632;28;20720;-63
2022/08/14 04:04:17;;;;;;;8.35;7.70;;;21.80;99.90;;;;;;4972858;28;20194;-63
2022/08/14 04:06:42;;;;;;;7.20;6.70;;;21.80;99.90;;;;;;4955705;28;20227;-63
2022/08/14 04:09:08;;;;;;;8.30;7.60;;;21.80;99.90;;;;;;4970425;28;20543;-63
2022/08/14 04:11:37;;;;;;;8.60;7.70;;;21.80;99.90;;;;;;4957417;28;20229;-63
2022/08/14 04:14:04;;;;;;;8.57;7.70;;;21.70;99.90;;;;;;4985776;28;20208;-64
2022/08/14 04:16:30;;;;;;;7.63;7.10;;;21.70;99.90;;;;;;4955928;28;20214;-63
2022/08/14 04:18:58;;;;;;;9.10;8.20;;;21.70;99.90;;;;;;4975841;28;20202;-62
2022/08/14 04:21:28;;;;;;;8.30;7.50;;;21.70;99.90;;;;;;4955109;28;20198;-63
2022/08/14 04:23:56;;;;;;;11.55;7.65;;;21.70;99.90;;;;;;4980684;28;20204;-63
2022/08/14 04:26:22;;;;;;;8.68;7.88;;;21.70;99.90;;;;;;4953927;28;20342;-63
2022/08/14 04:28:49;;;;;;;8.77;7.70;;;21.70;99.90;;;;;;4971229;28;20769;-63
2022/08/14 04:31:17;;;;;;;8.87;7.97;;;21.70;99.90;;;;;;4964577;28;20222;-63
2022/08/14 04:33:43;;;;;;;7.83;7.23;;;21.70;99.90;;;;;;4985316;28;20297;-63
2022/08/14 04:36:08;;;;;;;8.20;7.50;;;21.70;99.90;;;;;;4971029;28;20675;-63
2022/08/14 04:44:03;;;;;;;7.97;7.37;;;21.80;99.90;;;;;;4967248;28;20280;-64
2022/08/14 04:46:29;;;;;;;7.88;7.18;;;21.90;99.90;;;;;;4959223;28;20607;-64
2022/08/14 04:48:55;;;;;;;7.97;7.38;;;21.90;99.90;;;;;;4975584;28;20240;-63
2022/08/14 04:51:26;;;;;;;8.50;7.70;;;21.90;99.90;;;;;;4957070;28;20252;-63
2022/08/14 04:53:53;;;;;;;8.10;7.38;;;21.90;99.90;;;;;;4972750;28;20178;-64
2022/08/14 04:56:21;;;;;;;8.32;7.72;;;22.00;99.90;;;;;;4952265;28;20600;-64
2022/08/14 04:58:48;;;;;;;8.32;7.13;;;22.00;99.90;;;;;;4985739;28;20181;-64
2022/08/14 05:01:14;;;;;;;8.23;7.43;;;22.10;99.90;;;;;;4956501;28;20248;-64
2022/08/14 05:03:40;;;;;;;8.48;7.65;;;22.10;99.90;;;;;;4977457;28;20663;-64
2022/08/14 05:06:08;;;;;;;8.50;7.65;;;22.20;99.90;;;;;;4959680;28;20654;-64
2022/08/14 05:08:34;;;;;;;15.02;7.55;;;22.30;99.90;;;;;;4973762;28;20664;-65
2022/08/14 05:11:01;;;;;;;7.13;6.38;;;22.40;99.90;;;;;;4962490;28;20217;-65
2022/08/14 05:13:29;;;;;;;8.13;7.43;;;22.40;99.90;;;;;;4975087;28;20691;-64
2022/08/14 05:15:59;;;;;;;13.85;8.20;;;22.50;99.90;;;;;;4955684;28;20206;-64
2022/08/14 05:18:31;;;;;;;7.85;7.15;;;22.60;99.90;;;;;;4975582;28;20198;-64
2022/08/14 05:20:58;;;;;;;7.40;6.80;;;22.60;99.90;;;;;;4961397;28;20210;-62
2022/08/14 05:23:26;;;;;;;7.60;7.00;;;22.70;99.90;;;;;;4978842;28;20677;-63
2022/08/14 05:26:00;;;;;;;7.70;7.10;;;22.80;99.90;;;;;;4964042;28;20212;-63
2022/08/14 05:28:28;;;;;;;7.32;6.60;;;22.80;99.90;;;;;;4959141;28;20200;-64
2022/08/14 05:30:56;;;;;;;8.68;7.88;;;22.80;99.90;;;;;;4963126;28;20235;-64
2022/08/14 05:33:24;;;;;;;10.80;7.78;;;22.90;99.90;;;;;;4970992;28;20264;-64
2022/08/14 05:35:52;;;;;;;7.78;7.18;;;23.00;99.90;;;;;;4956639;28;20234;-64
2022/08/14 05:38:20;;;;;;;7.75;7.15;;;23.00;99.90;;;;;;4971111;28;20204;-62
2022/08/14 05:40:48;;;;;;;8.10;7.50;;;23.10;99.90;;;;;;4959718;28;20214;-63
2022/08/14 05:43:14;;;;;;;8.82;8.00;;;23.20;99.90;;;;;;4968924;28;20200;-63
2022/08/14 05:45:41;;;;;;;8.65;7.82;;;23.30;99.90;;;;;;4967230;28;20525;-63
2022/08/14 05:48:12;;;;;;;8.70;8.00;;;23.40;99.90;;;;;;4968655;28;20205;-63
2022/08/14 05:50:37;;;;;;;9.57;8.68;;;23.40;99.90;;;;;;4952609;28;20226;-63
2022/08/14 05:53:03;;;;;;;8.02;7.47;;;23.40;99.90;;;;;;4957672;28;20188;-63
2022/08/14 05:55:28;;;;;;;8.60;7.95;;;23.60;99.90;;;;;;4971119;28;20200;-63
2022/08/14 05:57:57;;;;;;;8.75;7.82;;;23.70;99.90;;;;;;4960608;28;20597;-63
2022/08/14 06:00:24;;;;;;;8.93;8.20;;;23.70;99.90;;;;;;4960272;28;20208;-63
2022/08/14 06:02:50;;;;;;;8.93;8.05;;;23.90;99.90;;;;;;4947902;28;20704;-63
2022/08/14 06:05:16;;;;;;;8.60;7.80;;;24.00;99.90;;;;;;4977749;28;20203;-63
2022/08/14 06:07:41;;;;;;;11.27;8.00;;;24.10;99.90;;;;;;4961098;28;20666;-63
2022/08/14 06:10:09;;;;;;;8.20;7.55;;;24.20;99.90;;;;;;4977009;28;20657;-63
2022/08/14 06:12:35;;;;;;;9.13;8.23;;;24.30;99.90;;;;;;4957561;28;20658;-63
2022/08/14 06:15:01;;;;;;;8.63;7.82;;;24.40;99.90;;;;;;4977164;28;20200;-63
2022/08/14 06:17:26;;;;;;;8.88;8.00;;;24.50;99.90;;;;;;4974786;28;20226;-64
2022/08/14 06:19:52;;;;;;;8.55;7.75;;;24.60;99.90;;;;;;4953304;28;20282;-64
2022/08/14 06:22:18;;;;;;;9.00;8.07;;;24.70;99.90;;;;;;4957786;28;20191;-64
2022/08/14 06:24:43;;;;;;;7.78;7.05;;;24.80;99.90;;;;;;4967117;28;20286;-64
2022/08/14 06:27:09;;;;;;;9.30;7.22;;;24.90;99.90;;;;;;4959367;28;20288;-63
2022/08/14 06:29:36;;;;;;;7.05;6.53;;;24.90;99.90;;;;;;4975819;28;20229;-62
2022/08/14 06:32:03;;;;;;;7.90;7.15;;;24.90;99.90;;;;;;4955522;28;20266;-63
2022/08/14 06:34:28;;;;;;;7.95;7.22;;;25.00;99.90;;;;;;4976829;28;20222;-63
2022/08/14 06:36:57;;;;;;;8.18;7.38;;;25.10;99.90;;;;;;4956265;28;20201;-62
2022/08/14 06:39:23;;;;;;;7.78;7.18;;;25.10;99.90;;;;;;4978329;28;20754;-63
2022/08/14 06:41:49;;;;;;;8.38;7.78;;;25.20;99.90;;;;;;4953038;28;20206;-63
2022/08/14 06:44:14;;;;;;;8.68;7.90;;;25.30;99.90;;;;;;4978048;28;20189;-64
2022/08/14 06:46:40;;;;;;;8.50;7.65;;;25.30;99.90;;;;;;4961756;28;20259;-63
2022/08/14 06:49:06;;;;;;;8.88;8.07;;;25.40;99.90;;;;;;4980457;28;20656;-63
2022/08/14 06:51:32;;;;;;;8.20;7.45;;;25.50;99.90;;;;;;4958286;28;20221;-63
2022/08/14 06:53:57;;;;;;;9.00;8.07;;;25.50;99.90;;;;;;4966273;28;20193;-63
2022/08/14 06:56:23;;;;;;;9.18;8.38;;;25.60;99.90;;;;;;4965041;28;20216;-63
2022/08/14 06:58:49;;;;;;;9.65;8.65;;;25.60;99.90;;;;;;4978264;28;20197;-63
2022/08/14 07:06:42;;;;;;;8.60;7.60;;;25.70;99.90;;;;;;4957525;28;20222;-64
2022/08/14 07:09:11;;;;;;;8.93;8.15;;;25.70;99.90;;;;;;4975593;28;20191;-64
2022/08/14 07:11:37;;;;;;;8.18;7.53;;;25.80;99.90;;;;;;4956713;28;20286;-63
2022/08/14 07:14:03;;;;;;;8.18;7.50;;;25.80;99.90;;;;;;4979788;28;20287;-64
2022/08/14 07:16:29;;;;;;;8.43;7.72;;;25.80;99.90;;;;;;4961392;28;20202;-63
2022/08/14 07:18:55;;;;;;;8.23;7.50;;;25.90;99.90;;;;;;4974066;28;20255;-64
2022/08/14 07:21:20;;;;;;;8.57;7.97;;;25.90;99.90;;;;;;4966333;28;20627;-64
2022/08/14 07:23:46;;;;;;;8.10;7.40;;;26.00;99.90;;;;;;4981493;28;20563;-64
2022/08/14 07:26:12;;;;;;;12.57;7.38;;;26.00;99.90;;;;;;4972789;28;20239;-62
2022/08/14 07:28:39;;;;;;;9.27;8.38;;;26.10;99.90;;;;;;4969270;28;20225;-64
2022/08/14 07:31:08;;;;;;;8.70;7.97;;;26.20;99.90;;;;;;4970830;28;20230;-63
2022/08/14 07:33:44;;;;;;;8.30;7.60;;;26.30;99.90;;;;;;4979816;28;20220;-64
2022/08/14 07:36:12;;;;;;;8.10;7.47;;;26.40;99.90;;;;;;4973684;28;20275;-64
2022/08/14 07:38:39;;;;;;;8.30;7.38;;;26.50;99.90;;;;;;4983195;28;20499;-64
2022/08/14 07:41:07;;;;;;;8.15;7.45;;;26.60;99.90;;;;;;4969344;28;20798;-64
2022/08/14 07:43:33;;;;;;;8.15;7.15;;;26.60;99.70;;;;;;4987171;28;20201;-64
2022/08/14 07:45:59;;;;;;;9.15;7.07;;;26.70;99.90;;;;;;4959993;28;20566;-65
2022/08/14 07:48:25;;;;;;;7.10;6.60;;;26.80;99.60;;;;;;4959706;28;20192;-63
2022/08/14 07:50:50;;;;;;;6.70;6.20;;;26.90;99.60;;;;;;4973000;28;20339;-64
2022/08/14 07:53:17;;;;;;;8.15;7.43;;;27.00;99.00;;;;;;4951915;28;20181;-63
2022/08/14 07:55:45;;;;;;;7.88;7.22;;;27.10;99.00;;;;;;4978866;28;20209;-64
2022/08/14 07:58:11;;;;;;;6.05;5.65;;;27.20;98.70;;;;;;4955794;28;20626;-66
2022/08/14 08:00:37;;;;;;;6.57;5.97;;;27.20;98.10;;;;;;4973687;28;20550;-63
2022/08/14 08:03:11;;;;;;;6.10;5.60;;;27.30;98.00;;;;;;4961107;28;20240;-62
2022/08/14 08:05:38;;;;;;;6.20;5.70;;;27.40;97.00;;;;;;4956974;28;20295;-62
2022/08/14 08:08:05;;;;;;;7.03;6.43;;;27.50;97.20;;;;;;4958471;28;20190;-63
2022/08/14 08:10:31;;;;;;;7.45;6.70;;;27.60;97.30;;;;;;4956665;28;20692;-62
2022/08/14 08:13:06;;;;;;;9.95;6.68;;;27.70;95.90;;;;;;4958828;28;20181;-62
2022/08/14 08:15:35;;;;;;;6.30;5.45;;;27.70;95.70;;;;;;4960617;28;20217;-62
2022/08/14 08:18:03;;;;;;;6.82;6.22;;;27.80;96.10;;;;;;4955838;28;20216;-63
2022/08/14 08:20:31;;;;;;;7.05;6.45;;;28.00;96.00;;;;;;4956269;28;20218;-63
2022/08/14 08:22:57;;;;;;;6.93;6.30;;;28.00;94.40;;;;;;4955703;28;20188;-62
2022/08/14 08:25:24;;;;;;;6.32;5.78;;;28.00;94.50;;;;;;4973791;28;20672;-63
2022/08/14 08:28:01;;;;;;;7.47;6.78;;;28.00;94.30;;;;;;4958472;28;20186;-62
2022/08/14 08:30:30;;;;;;;7.63;6.25;;;28.10;93.90;;;;;;4955632;28;20212;-64
2022/08/14 08:32:57;;;;;;;6.15;5.75;;;28.20;93.80;;;;;;4958233;28;20194;-64
2022/08/14 08:35:25;;;;;;;7.22;6.50;;;28.20;93.70;;;;;;4962919;28;20747;-63
2022/08/14 08:37:59;;;;;;;7.25;6.65;;;28.40;93.70;;;;;;4958565;28;20289;-63
2022/08/14 08:40:28;;;;;;;7.25;6.63;;;28.50;93.30;;;;;;4957021;28;20178;-62
2022/08/14 08:42:53;;;;;;;7.20;6.70;;;28.70;93.10;;;;;;4958605;28;20178;-64
2022/08/14 08:45:20;;;;;;;7.75;6.95;;;28.80;93.00;;;;;;4959728;28;20201;-64
2022/08/14 08:47:47;;;;;;;9.68;6.35;;;28.90;92.40;;;;;;4954757;28;20645;-62
2022/08/14 08:50:17;;;;;;;7.50;6.75;;;29.00;92.20;;;;;;4956623;28;20206;-63
2022/08/14 08:53:04;;;;;;;7.65;6.80;;;29.10;92.10;;;;;;4955081;28;20344;-62
2022/08/14 08:55:31;;;;;;;6.75;6.35;;;29.20;91.80;;;;;;4958696;28;20200;-66
2022/08/14 08:57:59;;;;;;;6.93;6.43;;;29.20;91.40;;;;;;4954043;28;20192;-65
2022/08/14 09:00:32;;;;;;;9.80;6.50;;;29.20;91.10;;;;;;4972745;28;20208;-65
2022/08/14 09:03:02;;;;;;;7.57;6.82;;;29.20;91.20;;;;;;4957669;28;20943;-65
2022/08/14 09:05:29;;;;;;;7.03;6.45;;;29.30;91.20;;;;;;4968625;28;20201;-65
2022/08/14 09:08:12;;;;;;;8.55;5.93;;;29.40;91.50;;;;;;4954583;28;20550;-65
2022/08/14 09:10:37;;;;;;;7.10;6.50;;;29.50;90.00;;;;;;4954302;28;20209;-65
2022/08/14 09:13:03;;;;;;;6.28;5.88;;;29.50;90.20;;;;;;4958256;28;20240;-65
2022/08/14 09:15:29;;;;;;;6.00;5.55;;;29.70;90.20;;;;;;4956524;28;20190;-65
2022/08/14 09:17:56;;;;;;;6.65;6.00;;;29.70;89.10;;;;;;4955548;28;20588;-65
2022/08/14 09:20:22;;;;;;;8.18;5.07;;;29.80;88.80;;;;;;4959618;28;20182;-65
2022/08/14 09:22:48;;;;;;;5.97;5.57;;;29.70;86.70;;;;;;4957763;28;20559;-65
2022/08/14 09:25:17;;;;;;;9.43;6.60;;;29.60;86.60;;;;;;4956586;28;20227;-66
2022/08/14 09:27:42;;;;;;;5.75;5.00;;;29.70;88.10;;;;;;4955686;28;20268;-64
2022/08/14 09:30:09;;;;;;;5.85;5.32;;;29.90;86.60;;;;;;4959672;28;20533;-64
2022/08/14 09:32:49;;;;;;;8.98;5.97;;;30.10;86.60;;;;;;4952471;28;20755;-64
2022/08/14 09:35:23;;;;;;;7.88;6.05;;;30.10;83.40;;;;;;4962404;28;20236;-64
2022/08/14 09:38:14;;;;;;;5.43;4.95;;;30.10;82.60;;;;;;4955245;28;20210;-64
2022/08/14 09:41:22;;;;;;;5.50;5.10;;;30.10;82.10;;;;;;4957295;28;20205;-64
2022/08/14 09:44:28;;;;;;;5.28;4.80;;;30.20;82.80;;;;;;4952918;28;20178;-65
2022/08/14 09:46:57;;;;;;;9.55;6.47;;;30.30;81.90;;;;;;4946568;28;20210;-70
2022/08/14 09:49:36;;;;;;;6.20;5.47;;;30.40;80.70;;;;;;4959000;28;20744;-65
2022/08/14 09:52:03;;;;;;;5.50;5.05;;;30.50;80.40;;;;;;4955032;28;20256;-68
2022/08/14 09:54:45;;;;;;;7.22;4.90;;;30.60;79.20;;;;;;4982287;28;20197;-67
2022/08/14 09:57:29;;;;;;;5.82;5.22;;;30.60;78.80;;;;;;4945061;28;20202;-68
2022/08/14 09:59:55;;;;;;;5.70;5.20;;;30.60;79.10;;;;;;4949316;28;20232;-69
2022/08/14 10:02:32;;;;;;;5.63;5.13;;;30.60;77.50;;;;;;4956247;28;20218;-68
2022/08/14 10:05:10;;;;;;;5.88;5.10;;;30.60;78.00;;;;;;4965801;28;20275;-69
2022/08/14 10:07:49;;;;;;;5.82;4.85;;;30.70;78.00;;;;;;4951993;28;20224;-67
2022/08/14 10:10:27;;;;;;;6.85;4.57;;;30.90;76.80;;;;;;4957989;28;20498;-67
2022/08/14 10:12:54;;;;;;;4.95;4.53;;;30.90;75.10;;;;;;4948274;28;20540;-69
2022/08/14 10:15:21;;;;;;;5.15;4.85;;;30.80;74.90;;;;;;4968601;28;20551;-66
2022/08/14 10:17:48;;;;;;;7.20;4.32;;;31.10;75.30;;;;;;4959505;28;20193;-66
2022/08/14 10:20:21;;;;;;;8.40;4.32;;;31.10;73.50;;;;;;4975906;28;20207;-66
2022/08/14 10:22:48;;;;;;;6.28;4.10;;;31.40;73.80;;;;;;4961436;28;20212;-67
2022/08/14 10:25:16;;;;;;;4.88;4.38;;;31.70;72.40;;;;;;4973718;28;20280;-68
2022/08/14 10:27:45;;;;;;;4.72;4.18;;;31.90;73.20;;;;;;4966320;28;20356;-69
2022/08/14 10:30:14;;;;;;;4.57;4.20;;;32.20;72.00;;;;;;4963536;28;20206;-67
2022/08/14 10:32:44;;;;;;;3.97;3.67;;;32.20;71.40;;;;;;4961108;28;20683;-66
2022/08/14 10:35:12;;;;;;;4.82;4.15;;;32.50;70.80;;;;;;4968614;28;20313;-68
2022/08/14 10:37:39;;;;;;;4.10;3.80;;;32.50;65.50;;;;;;4960752;28;20202;-66
2022/08/14 10:40:06;;;;;;;4.20;3.80;;;32.10;66.40;;;;;;4960044;28;20194;-68
2022/08/14 10:42:40;;;;;;;3.95;3.53;;;31.90;66.50;;;;;;4965986;28;20212;-66
2022/08/14 10:45:30;;;;;;;3.78;3.40;;;31.80;66.70;;;;;;4971723;28;20288;-66
2022/08/14 10:47:56;;;;;;;8.65;4.03;;;32.00;65.50;;;;;;4960987;28;20269;-67
2022/08/14 10:50:32;;;;;;;7.10;3.65;;;32.20;64.60;;;;;;4977739;28;20209;-67
2022/08/14 10:53:00;;;;;;;5.18;4.68;;;32.30;64.10;;;;;;4949801;28;20209;-67
2022/08/14 10:55:38;;;;;;;6.88;4.00;;;32.50;62.70;;;;;;4973129;28;20202;-69
2022/08/14 10:58:05;;;;;;;4.38;3.67;;;32.70;62.20;;;;;;4951514;28;20722;-67
2022/08/14 11:00:31;;;;;;;4.15;3.80;;;32.80;62.10;;;;;;4977296;28;20197;-68
2022/08/14 11:02:59;;;;;;;5.47;3.47;;;32.80;61.60;;;;;;4959499;28;20269;-69
2022/08/14 11:05:26;;;;;;;3.25;3.10;;;33.10;60.00;;;;;;4977239;28;20210;-68
2022/08/14 11:07:54;;;;;;;3.72;3.53;;;33.30;57.80;;;;;;4957198;28;20221;-66
2022/08/14 11:10:22;;;;;;;3.50;3.05;;;33.50;57.70;;;;;;4963367;28;20398;-67
2022/08/14 11:12:49;;;;;;;3.38;3.08;;;33.80;58.00;;;;;;4956678;28;20236;-66
2022/08/14 11:15:23;;;;;;;4.03;3.72;;;34.00;56.70;;;;;;4962719;28;20690;-66
2022/08/14 11:17:49;;;;;;;3.80;3.50;;;34.10;55.90;;;;;;4960979;28;20206;-68
2022/08/14 11:20:21;;;;;;;3.78;3.40;;;34.10;56.30;;;;;;4968914;28;20204;-67
2022/08/14 11:22:53;;;;;;;4.57;3.75;;;34.20;55.80;;;;;;4959007;28;20293;-67
2022/08/14 11:25:22;;;;;;;3.90;3.40;;;34.30;56.50;;;;;;4960924;28;20229;-68
2022/08/14 11:27:49;;;;;;;4.85;3.40;;;34.50;55.70;;;;;;4964839;28;20202;-66
2022/08/14 11:30:20;;;;;;;4.60;4.00;;;34.60;56.50;;;;;;4982477;28;20205;-67
2022/08/14 11:32:48;;;;;;;4.30;3.60;;;35.00;54.40;;;;;;4960011;28;20205;-67
2022/08/14 11:35:19;;;;;;;4.35;3.95;;;35.10;53.10;;;;;;4977647;28;20708;-67
2022/08/14 11:37:53;;;;;;;4.13;3.83;;;35.10;50.80;;;;;;4949036;28;20206;-67
2022/08/14 11:40:20;;;;;;;3.95;3.40;;;35.10;49.90;;;;;;4966094;28;20197;-67
2022/08/14 11:42:47;;;;;;;3.75;3.53;;;34.70;51.10;;;;;;4954519;28;20237;-67
2022/08/14 11:45:14;;;;;;;4.25;3.95;;;34.80;51.50;;;;;;4974564;28;20201;-67
2022/08/14 11:47:40;;;;;;;4.43;3.53;;;35.10;51.50;;;;;;4968786;28;20210;-67
2022/08/14 11:50:18;;;;;;;4.32;3.92;;;34.90;51.10;;;;;;4961866;28;20272;-67
2022/08/14 11:52:44;;;;;;;6.68;4.05;;;34.40;51.80;;;;;;4957803;28;20205;-67
2022/08/14 11:55:12;;;;;;;3.80;3.60;;;34.10;52.70;;;;;;4964084;28;20193;-68
2022/08/14 11:57:39;;;;;;;4.03;3.70;;;34.50;52.40;;;;;;4965775;28;20205;-67
2022/08/14 12:00:15;;;;;;;4.60;3.63;;;35.30;51.40;;;;;;4975486;28;20212;-66
2022/08/14 12:02:57;;;;;;;3.95;3.75;;;36.00;49.80;;;;;;4956657;28;20213;-67
2022/08/14 12:05:35;;;;;;;3.80;3.50;;;36.40;48.80;;;;;;4960946;28;20767;-66
2022/08/14 12:08:05;;;;;;;4.07;3.67;;;36.90;48.00;;;;;;4959797;28;20201;-67
2022/08/14 12:10:32;;;;;;;3.50;3.30;;;37.30;47.20;;;;;;4960327;28;20217;-67
2022/08/14 12:12:57;;;;;;;3.90;3.50;;;37.10;45.80;;;;;;4961068;28;20197;-67
2022/08/14 12:15:31;;;;;;;3.90;3.67;;;37.20;45.80;;;;;;4980608;28;20196;-68
2022/08/14 12:17:58;;;;;;;4.05;3.85;;;37.20;44.60;;;;;;4970569;28;20200;-68
2022/08/14 12:20:32;;;;;;;5.10;4.07;;;37.20;43.80;;;;;;4963042;28;20206;-68
2022/08/14 12:23:03;;;;;;;4.32;3.97;;;37.30;42.60;;;;;;4959987;28;20205;-67
2022/08/14 12:25:29;;;;;;;4.00;3.58;;;37.00;43.30;;;;;;4958936;28;20359;-67
2022/08/14 12:27:57;;;;;;;4.05;3.80;;;36.90;43.70;;;;;;4956926;28;20288;-66
2022/08/14 12:30:37;;;;;;;4.22;3.92;;;37.00;42.80;;;;;;4959852;28;20221;-68
2022/08/14 12:33:05;;;;;;;3.88;3.45;;;37.10;42.80;;;;;;4953495;28;20284;-69
2022/08/14 12:35:39;;;;;;;3.85;3.45;;;37.40;41.80;;;;;;4958882;28;20316;-68
2022/08/14 12:38:04;;;;;;;4.00;3.80;;;37.70;41.40;;;;;;4960376;28;20224;-67
2022/08/14 12:40:30;;;;;;;3.60;3.40;;;38.10;39.90;;;;;;4960715;28;20204;-67
2022/08/14 12:43:02;;;;;;;4.63;4.22;;;38.20;39.80;;;;;;4959844;28;20560;-67
2022/08/14 12:45:33;;;;;;;4.22;3.92;;;38.30;39.50;;;;;;4957617;28;20205;-67
2022/08/14 12:48:00;;;;;;;4.05;3.75;;;38.70;39.40;;;;;;4961571;28;20251;-67
2022/08/14 12:50:40;;;;;;;5.35;3.35;;;39.00;39.30;;;;;;4959080;28;20202;-67
2022/08/14 12:53:07;;;;;;;3.88;3.67;;;39.40;38.90;;;;;;4957018;28;20213;-67
2022/08/14 12:55:37;;;;;;;5.63;3.70;;;39.60;38.00;;;;;;4960846;28;20676;-66
2022/08/14 12:58:07;;;;;;;3.90;3.53;;;40.20;37.50;;;;;;4953633;28;20825;-68
2022/08/14 13:00:37;;;;;;;4.25;3.88;;;40.70;37.40;;;;;;4978147;28;20239;-68
2022/08/14 13:03:04;;;;;;;3.90;3.60;;;41.20;36.60;;;;;;4957394;28;20202;-67
2022/08/14 13:05:32;;;;;;;3.58;3.25;;;41.50;35.80;;;;;;4959822;28;20390;-67